createdAt,value
2019-02-08T00:00:12.301Z,2.50
2019-02-08T00:02:58.421Z,2.73
2019-02-08T00:05:44.371Z,3.20
2019-02-08T00:08:32.816Z,2.67
2019-02-08T00:11:18.724Z,2.37
2019-02-08T00:14:04.908Z,2.37
2019-02-08T00:16:51.384Z,2.63
2019-02-08T00:20:17.539Z,2.63
2019-02-08T00:25:52.049Z,2.73
2019-02-08T00:28:38.145Z,3.40
2019-02-08T00:31:25.880Z,2.47
2019-02-08T00:34:12.073Z,3.47
2019-02-08T00:36:57.946Z,3.43
2019-02-08T00:39:43.792Z,2.80
2019-02-08T00:42:31.153Z,2.17
2019-02-08T00:45:17.630Z,2.40
2019-02-08T00:48:03.718Z,2.67
2019-02-08T00:50:49.810Z,2.40
2019-02-08T00:53:36.278Z,2.33
2019-02-08T00:56:22.106Z,2.50
2019-02-08T00:59:08.786Z,2.93
2019-02-08T01:01:55.050Z,3.17
2019-02-08T01:04:41.078Z,2.50
2019-02-08T01:07:27.625Z,2.70
2019-02-08T01:10:17.744Z,2.67
2019-02-08T01:13:04.450Z,2.67
2019-02-08T01:15:50.613Z,2.80
2019-02-08T01:18:36.826Z,3.07
2019-02-08T01:21:23.277Z,2.80
2019-02-08T01:24:10.962Z,2.50
2019-02-08T01:26:58.155Z,2.20
2019-02-08T01:29:44.433Z,2.20
2019-02-08T01:32:31.231Z,3.30
2019-02-08T01:35:17.601Z,2.13
2019-02-08T01:38:04.392Z,2.70
2019-02-08T01:40:50.583Z,2.50
2019-02-08T01:43:36.543Z,1.90
2019-02-08T01:46:22.495Z,2.60
2019-02-08T01:49:08.539Z,3.03
2019-02-08T01:51:54.627Z,2.67
2019-02-08T01:54:40.519Z,2.60
2019-02-08T01:57:26.701Z,2.70
2019-02-08T02:00:39.236Z,2.60
2019-02-08T02:03:25.471Z,2.53
2019-02-08T02:06:12.103Z,2.33
2019-02-08T02:08:57.869Z,3.50
2019-02-08T02:11:44.009Z,3.13
2019-02-08T02:14:30.332Z,2.63
2019-02-08T02:17:16.374Z,3.37
2019-02-08T02:20:04.493Z,2.90
2019-02-08T02:22:50.933Z,3.13
2019-02-08T02:25:37.030Z,3.10
2019-02-08T02:28:23.229Z,3.57
2019-02-08T02:31:09.167Z,3.80
2019-02-08T02:33:55.279Z,4.63
2019-02-08T02:36:41.041Z,4.07
2019-02-08T02:39:27.048Z,4.27
2019-02-08T02:42:13.032Z,4.90
2019-02-08T02:44:59.137Z,4.30
2019-02-08T02:47:44.967Z,4.00
2019-02-08T02:50:31.199Z,4.17
2019-02-08T02:53:16.991Z,3.63
2019-02-08T02:56:03.479Z,4.23
2019-02-08T02:58:49.812Z,4.13
2019-02-08T03:01:35.852Z,3.87
2019-02-08T03:04:22.101Z,3.93
2019-02-08T03:07:08.152Z,4.50
2019-02-08T03:09:54.099Z,4.33
2019-02-08T03:12:40.694Z,3.83
2019-02-08T03:15:26.799Z,4.37
2019-02-08T03:18:12.979Z,4.27
2019-02-08T03:20:59.208Z,5.07
2019-02-08T03:23:45.272Z,3.47
2019-02-08T03:26:31.274Z,3.90
2019-02-08T03:29:17.553Z,3.43
2019-02-08T03:32:03.722Z,3.40
2019-02-08T03:34:49.787Z,4.13
2019-02-08T03:37:35.988Z,3.37
2019-02-08T03:40:23.584Z,2.87
2019-02-08T03:43:10.116Z,3.23
2019-02-08T03:45:56.702Z,2.83
2019-02-08T03:48:42.476Z,2.87
2019-02-08T03:51:28.564Z,3.40
2019-02-08T03:54:20.991Z,2.90
2019-02-08T03:57:02.408Z,3.73
2019-02-08T03:59:48.425Z,3.43
2019-02-08T04:02:34.524Z,3.00
2019-02-08T04:05:20.900Z,3.00
2019-02-08T04:08:06.941Z,3.30
2019-02-08T04:10:53.284Z,3.60
2019-02-08T04:13:39.305Z,3.80
2019-02-08T04:16:25.137Z,4.13
2019-02-08T04:19:14.172Z,4.93
2019-02-08T04:21:59.945Z,4.50
2019-02-08T04:24:45.951Z,4.87
2019-02-08T04:27:31.932Z,5.83
2019-02-08T04:30:25.884Z,5.53
2019-02-08T04:33:11.815Z,5.20
2019-02-08T04:35:58.031Z,5.20
2019-02-08T04:38:44.058Z,4.97
2019-02-08T04:41:30.113Z,5.13
2019-02-08T04:44:16.088Z,4.40
2019-02-08T04:47:01.893Z,4.63
2019-02-08T04:49:47.867Z,4.10
2019-02-08T04:52:34.232Z,4.17
2019-02-08T04:55:20.587Z,3.77
2019-02-08T04:58:06.884Z,4.00
2019-02-08T05:00:53.026Z,3.40
2019-02-08T05:03:38.842Z,3.57
2019-02-08T05:06:24.828Z,4.60
2019-02-08T05:09:11.088Z,3.30
2019-02-08T05:11:59.890Z,3.13
2019-02-08T05:14:46.015Z,3.30
2019-02-08T05:17:32.045Z,2.97
2019-02-08T05:20:19.756Z,3.30
2019-02-08T05:23:05.536Z,3.83
2019-02-08T05:25:51.838Z,3.60
2019-02-08T05:28:37.923Z,3.27
2019-02-08T05:31:23.980Z,4.00
2019-02-08T05:34:10.037Z,3.43
2019-02-08T05:36:57.537Z,3.23
2019-02-08T05:39:43.512Z,3.20
2019-02-08T05:42:29.904Z,3.60
2019-02-08T05:45:16.561Z,3.90
2019-02-08T05:48:02.942Z,3.90
2019-02-08T05:50:48.848Z,3.30
2019-02-08T05:53:35.006Z,3.73
2019-02-08T05:56:20.799Z,3.20
2019-02-08T05:59:06.965Z,4.43
2019-02-08T06:01:52.999Z,3.30
2019-02-08T06:04:39.753Z,3.90
2019-02-08T06:07:25.858Z,5.17
2019-02-08T06:10:12.314Z,6.90
2019-02-08T06:12:58.390Z,6.37
2019-02-08T06:15:45.045Z,4.97
2019-02-08T06:18:31.389Z,5.67
2019-02-08T06:21:17.639Z,4.63
2019-02-08T06:24:04.454Z,5.27
2019-02-08T06:26:52.716Z,3.43
2019-02-08T06:29:38.894Z,4.80
2019-02-08T06:32:25.231Z,7.30
2019-02-08T06:35:11.821Z,4.40
2019-02-08T06:37:58.066Z,4.00
2019-02-08T06:40:46.026Z,4.30
2019-02-08T06:43:31.950Z,3.80
2019-02-08T06:46:18.046Z,3.67
2019-02-08T06:49:07.711Z,4.17
2019-02-08T06:51:54.181Z,3.53
2019-02-08T06:54:42.858Z,3.07
2019-02-08T06:57:34.390Z,3.83
2019-02-08T07:00:27.982Z,3.57
2019-02-08T07:10:27.486Z,2.97
2019-02-08T07:13:28.770Z,3.80
2019-02-08T07:16:34.701Z,4.03
2019-02-08T07:19:49.493Z,3.30
2019-02-08T07:22:57.472Z,3.23
2019-02-08T07:25:54.550Z,3.50
2019-02-08T07:28:58.745Z,3.50
2019-02-08T07:32:00.538Z,2.93
2019-02-08T07:35:05.686Z,3.37
2019-02-08T07:38:23.417Z,3.83
2019-02-08T07:41:33.600Z,3.10
2019-02-08T07:44:52.122Z,3.20
2019-02-08T07:47:49.749Z,3.60
2019-02-08T07:50:57.325Z,3.23
2019-02-08T07:54:11.685Z,2.80
2019-02-08T07:57:15.332Z,3.37
2019-02-08T08:00:20.528Z,3.00
2019-02-08T08:03:24.355Z,3.20
2019-02-08T08:06:28.487Z,3.70
2019-02-08T08:09:36.862Z,4.30
2019-02-08T08:12:33.547Z,2.50
2019-02-08T08:15:43.745Z,3.03
2019-02-08T08:18:52.505Z,3.03
2019-02-08T08:21:49.507Z,2.47
2019-02-08T08:24:53.531Z,3.37
2019-02-08T08:28:01.475Z,3.47
2019-02-08T08:31:01.989Z,3.60
2019-02-08T08:34:24.682Z,2.80
2019-02-08T08:37:24.767Z,3.47
2019-02-08T08:40:57.896Z,4.40
2019-02-08T08:44:16.201Z,2.37
2019-02-08T08:47:44.498Z,3.27
2019-02-08T08:50:56.474Z,2.70
2019-02-08T08:54:30.027Z,2.90
2019-02-08T08:57:44.239Z,3.40
2019-02-08T09:01:08.085Z,2.40
2019-02-08T09:04:31.280Z,2.53
2019-02-08T09:08:16.775Z,2.93
2019-02-08T09:11:37.879Z,3.00
2019-02-08T09:14:49.907Z,2.93
2019-02-08T09:18:13.819Z,2.77
2019-02-08T09:21:37.047Z,2.40
2019-02-08T09:24:43.318Z,2.40
2019-02-08T09:28:09.963Z,3.00
2019-02-08T09:31:41.669Z,2.70
2019-02-08T09:35:05.704Z,2.30
2019-02-08T09:38:26.202Z,1.77
2019-02-08T09:41:52.036Z,2.53
2019-02-08T09:45:16.301Z,2.20
2019-02-08T09:48:38.303Z,2.27
2019-02-08T09:51:52.697Z,2.10
2019-02-08T09:55:33.599Z,2.43
2019-02-08T09:58:49.507Z,2.13
2019-02-08T10:01:54.149Z,1.63
2019-02-08T10:05:26.334Z,2.23
2019-02-08T10:08:36.506Z,1.77
2019-02-08T10:12:02.977Z,2.20
2019-02-08T10:15:26.535Z,1.70
2019-02-08T10:19:03.201Z,2.10
2019-02-08T10:22:55.263Z,1.90
2019-02-08T10:26:30.547Z,1.93
2019-02-08T10:30:03.594Z,1.80
2019-02-08T10:33:32.419Z,1.50
2019-02-08T10:37:00.989Z,2.47
2019-02-08T10:40:28.807Z,1.83
2019-02-08T10:44:23.708Z,1.40
2019-02-08T10:47:54.720Z,1.73
2019-02-08T10:51:06.987Z,1.40
2019-02-08T10:54:36.756Z,1.60
2019-02-08T10:57:59.636Z,1.70
2019-02-08T11:01:28.135Z,1.73
2019-02-08T11:04:52.627Z,1.50
2019-02-08T11:08:33.415Z,1.37
2019-02-08T11:12:11.492Z,1.70
2019-02-08T11:15:50.753Z,1.73
2019-02-08T11:19:17.708Z,1.57
2019-02-08T11:22:03.648Z,1.33
2019-02-08T11:24:49.243Z,1.83
2019-02-08T11:27:34.629Z,1.40
2019-02-08T11:30:20.306Z,1.60
2019-02-08T11:33:08.799Z,1.57
2019-02-08T11:35:56.688Z,1.77
2019-02-08T11:38:42.433Z,2.07
2019-02-08T11:41:28.451Z,1.33
2019-02-08T11:44:14.488Z,1.50
2019-02-08T11:46:59.831Z,2.23
2019-02-08T11:49:45.518Z,1.40
2019-02-08T11:52:31.036Z,1.73
2019-02-08T11:55:16.568Z,1.27
2019-02-08T11:58:02.345Z,1.60
2019-02-08T12:00:50.945Z,1.77
2019-02-08T12:03:36.809Z,1.47
2019-02-08T12:06:24.106Z,1.60
2019-02-08T12:09:18.270Z,1.73
2019-02-08T12:12:06.497Z,1.80
2019-02-08T12:14:52.424Z,1.57
2019-02-08T12:17:37.857Z,1.30
2019-02-08T12:22:59.809Z,1.40
2019-02-08T12:25:48.877Z,1.50
2019-02-08T12:28:34.812Z,1.97
2019-02-08T12:31:21.949Z,1.57
2019-02-08T12:34:08.341Z,1.37
2019-02-08T12:36:55.317Z,1.43
2019-02-08T12:39:41.801Z,1.57
2019-02-08T12:42:27.506Z,2.10
2019-02-08T12:45:13.912Z,1.27
2019-02-08T12:48:00.028Z,1.70
2019-02-08T12:50:45.769Z,1.60
2019-02-08T12:53:31.529Z,1.40
2019-02-08T12:56:17.490Z,1.60
2019-02-08T12:59:03.749Z,1.50
2019-02-08T13:01:49.425Z,1.33
2019-02-08T13:04:35.968Z,1.30
2019-02-08T13:07:22.345Z,1.30
2019-02-08T13:10:10.945Z,1.83
2019-02-08T13:12:56.941Z,1.53
2019-02-08T13:15:42.557Z,1.40
2019-02-08T13:18:28.807Z,1.40
2019-02-08T13:21:14.533Z,1.20
2019-02-08T13:24:01.345Z,1.60
2019-02-08T13:26:52.766Z,1.60
2019-02-08T13:29:34.832Z,1.30
2019-02-08T13:32:20.357Z,1.30
2019-02-08T13:35:06.570Z,1.50
2019-02-08T13:37:52.237Z,1.20
2019-02-08T13:40:37.789Z,1.50
2019-02-08T13:43:23.828Z,1.77
2019-02-08T13:46:09.613Z,1.60
2019-02-08T13:48:55.108Z,1.90
2019-02-08T13:51:41.066Z,1.67
2019-02-08T13:54:29.865Z,1.30
2019-02-08T13:57:15.669Z,1.57
2019-02-08T14:00:02.160Z,1.93
2019-02-08T14:02:48.209Z,1.90
2019-02-08T14:05:34.562Z,1.50
2019-02-08T14:08:22.069Z,1.70
2019-02-08T14:11:07.765Z,2.03
2019-02-08T14:13:54.537Z,1.70
2019-02-08T14:16:40.852Z,1.50
2019-02-08T14:19:26.963Z,1.80
2019-02-08T14:22:12.486Z,1.20
2019-02-08T14:24:58.750Z,1.70
2019-02-08T14:27:44.833Z,1.50
2019-02-08T14:30:34.023Z,1.10
2019-02-08T14:33:21.286Z,1.33
2019-02-08T14:36:06.862Z,1.40
2019-02-08T14:38:52.529Z,1.67
2019-02-08T14:41:38.621Z,1.50
2019-02-08T14:44:24.221Z,1.80
2019-02-08T14:47:10.053Z,1.20
2019-02-08T14:49:57.437Z,1.30
2019-02-08T14:52:43.285Z,1.20
2019-02-08T14:55:28.943Z,1.90
2019-02-08T14:58:16.776Z,1.50
2019-02-08T15:01:03.053Z,0.90
2019-02-08T15:03:48.892Z,1.40
2019-02-08T15:06:35.353Z,1.60
2019-02-08T15:09:21.225Z,1.20
2019-02-08T15:12:06.865Z,1.30
2019-02-08T15:14:53.077Z,1.10
2019-02-08T15:17:39.607Z,1.40
2019-02-08T15:20:28.277Z,1.33
2019-02-08T15:23:15.261Z,1.40
2019-02-08T15:26:02.406Z,1.20
2019-02-08T15:28:47.777Z,1.23
2019-02-08T15:31:33.749Z,1.10
2019-02-08T15:34:19.402Z,1.27
2019-02-08T15:37:05.109Z,1.40
2019-02-08T15:39:51.071Z,1.50
2019-02-08T15:42:36.768Z,1.30
2019-02-08T15:45:22.409Z,1.30
2019-02-08T15:48:08.714Z,1.57
2019-02-08T15:50:54.700Z,1.10
2019-02-08T15:53:40.585Z,1.20
2019-02-08T15:56:27.054Z,1.17
2019-02-08T15:59:12.777Z,1.47
2019-02-08T16:01:58.949Z,1.50
2019-02-08T16:04:45.249Z,1.27
2019-02-08T16:07:31.222Z,1.60
2019-02-08T16:10:17.330Z,1.70
2019-02-08T16:13:03.895Z,1.40
2019-02-08T16:15:49.934Z,1.60
2019-02-08T16:18:35.946Z,1.43
2019-02-08T16:21:22.502Z,1.93
2019-02-08T16:24:08.027Z,2.00
2019-02-08T16:26:55.097Z,1.37
2019-02-08T16:29:46.048Z,1.53
2019-02-08T16:32:31.717Z,1.87
2019-02-08T16:35:19.853Z,1.30
2019-02-08T16:38:06.753Z,1.57
2019-02-08T16:40:52.806Z,2.10
2019-02-08T16:43:38.967Z,2.07
2019-02-08T16:46:25.055Z,1.73
2019-02-08T16:49:10.794Z,2.03
2019-02-08T16:51:56.532Z,2.40
2019-02-08T16:54:42.614Z,1.90
2019-02-08T16:57:28.406Z,2.00
2019-02-08T17:00:21.292Z,1.97
2019-02-08T17:03:09.605Z,1.80
2019-02-08T17:05:55.053Z,1.70
2019-02-08T17:08:41.036Z,1.70
2019-02-08T17:11:27.713Z,1.73
2019-02-08T17:14:13.795Z,1.60
2019-02-08T17:17:00.376Z,1.67
2019-02-08T17:19:46.484Z,2.20
2019-02-08T17:22:32.520Z,1.70
2019-02-08T17:25:20.167Z,1.40
2019-02-08T17:28:08.923Z,2.00
2019-02-08T17:30:56.290Z,1.90
2019-02-08T17:33:41.964Z,1.70
2019-02-08T17:36:27.914Z,2.07
2019-02-08T17:39:14.808Z,2.13
2019-02-08T17:42:00.774Z,1.97
2019-02-08T17:44:46.901Z,1.67
2019-02-08T17:47:33.529Z,2.03
2019-02-08T17:50:21.426Z,2.00
2019-02-08T17:53:07.533Z,1.90
2019-02-08T17:55:53.251Z,2.43
2019-02-08T17:58:38.830Z,2.10
2019-02-08T18:01:25.820Z,2.00
2019-02-08T18:04:11.813Z,2.17
2019-02-08T18:06:57.458Z,2.10
2019-02-08T18:09:43.722Z,1.97
2019-02-08T18:12:32.364Z,1.73
2019-02-08T18:15:19.194Z,2.20
2019-02-08T18:18:07.310Z,2.40
2019-02-08T18:20:55.565Z,2.30
2019-02-08T18:23:41.699Z,2.17
2019-02-08T18:26:27.526Z,2.43
2019-02-08T18:29:14.333Z,2.00
2019-02-08T18:32:00.332Z,2.20
2019-02-08T18:34:46.136Z,2.47
2019-02-08T18:37:31.566Z,3.57
2019-02-08T18:40:18.490Z,2.17
2019-02-08T18:43:04.494Z,2.30
2019-02-08T18:45:51.967Z,2.30
2019-02-08T18:48:39.235Z,2.23
2019-02-08T18:51:25.278Z,2.17
2019-02-08T18:54:16.440Z,2.50
2019-02-08T18:57:07.040Z,2.43
2019-02-08T18:59:53.307Z,2.40
2019-02-08T19:02:39.353Z,2.37
2019-02-08T19:05:25.494Z,1.90
2019-02-08T19:08:11.540Z,2.30
2019-02-08T19:10:57.551Z,2.23
2019-02-08T19:13:44.080Z,2.27
2019-02-08T19:16:30.240Z,2.50
2019-02-08T19:19:18.525Z,2.50
2019-02-08T19:22:04.558Z,2.40
2019-02-08T19:24:50.189Z,2.33
2019-02-08T19:27:35.981Z,2.40
2019-02-08T19:30:25.084Z,1.93
2019-02-08T19:33:10.732Z,2.57
2019-02-08T19:36:00.149Z,1.97
2019-02-08T19:38:48.657Z,2.40
2019-02-08T19:41:34.393Z,1.93
2019-02-08T19:44:21.873Z,2.63
2019-02-08T19:47:07.871Z,2.30
2019-02-08T19:49:53.893Z,2.43
2019-02-08T19:52:42.601Z,3.03
2019-02-08T19:55:29.318Z,2.30
2019-02-08T19:58:15.461Z,2.40
2019-02-08T20:01:01.504Z,2.47
2019-02-08T20:03:47.076Z,2.87
2019-02-08T20:06:32.773Z,2.47
2019-02-08T20:09:19.810Z,2.47
2019-02-08T20:12:05.703Z,4.60
2019-02-08T20:14:51.400Z,2.50
2019-02-08T20:17:37.450Z,2.43
2019-02-08T20:20:23.686Z,2.90
2019-02-08T20:23:09.227Z,2.10
2019-02-08T20:25:54.736Z,2.60
2019-02-08T20:28:42.743Z,2.40
2019-02-08T20:31:30.443Z,3.17
2019-02-08T20:34:16.361Z,2.10
2019-02-08T20:37:02.261Z,2.30
2019-02-08T20:39:49.807Z,2.63
2019-02-08T20:42:35.715Z,2.53
2019-02-08T20:45:23.307Z,2.60
2019-02-08T20:48:12.084Z,2.07
2019-02-08T20:50:58.137Z,2.33
2019-02-08T20:53:44.349Z,2.20
2019-02-08T20:56:32.333Z,2.33
2019-02-08T20:59:20.859Z,2.10
2019-02-08T21:02:06.671Z,2.03
2019-02-08T21:04:53.235Z,2.33
2019-02-08T21:07:39.762Z,2.40
2019-02-08T21:10:26.022Z,2.40
2019-02-08T21:13:12.335Z,2.20
2019-02-08T21:16:03.260Z,1.63
2019-02-08T21:18:49.034Z,1.90
2019-02-08T21:21:35.661Z,2.40
2019-02-08T21:24:21.271Z,2.00
2019-02-08T21:27:09.595Z,2.37
2019-02-08T21:29:55.684Z,2.03
2019-02-08T21:32:42.635Z,2.20
2019-02-08T21:35:28.699Z,2.10
2019-02-08T21:38:15.999Z,2.30
2019-02-08T21:41:01.831Z,1.93
2019-02-08T21:43:47.368Z,2.07
2019-02-08T21:46:33.276Z,1.97
2019-02-08T21:49:19.355Z,2.23
2019-02-08T21:52:05.158Z,2.40
2019-02-08T21:54:52.454Z,1.83
2019-02-08T21:57:38.374Z,1.83
2019-02-08T22:00:33.935Z,2.77
2019-02-08T23:29:55.365Z,1.63
2019-02-08T23:32:41.052Z,1.73
2019-02-08T23:35:27.253Z,1.70
2019-02-08T23:38:18.049Z,1.93
2019-02-08T23:41:07.139Z,2.20
2019-02-08T23:43:54.733Z,1.93
2019-02-08T23:46:42.007Z,2.17
2019-02-08T23:49:28.669Z,2.23
2019-02-08T23:52:14.369Z,1.97
2019-02-08T23:55:00.352Z,2.00
2019-02-08T23:57:45.925Z,2.00
